Time;durP1;ratioP1;P1;durP2;ratioP2;P2;SDS_P1;SDS_P2;PMS_P1;PMS_P2;Temp;Humidity;BMP_temperature;BMP_pressure;BME280_temperature;BME280_humidity;BME280_pressure;Samples;Min_cycle;Max_cycle;Signal;HPM_P1;HPM_P2
2022/01/16 00:19:40;;;;;;;6.55;5.25;;;;;;;;;;4834614;27;20659;-70
2022/01/16 00:22:12;;;;;;;6.28;5.57;;;;;;;;;;4332000;33;20489;-70
2022/01/16 00:24:39;;;;;;;7.12;5.97;;;;;;;;;;4326963;33;20193;-71
2022/01/16 00:27:05;;;;;;;6.00;5.40;;;;;;;;;;4304756;33;20107;-70
2022/01/16 00:29:31;;;;;;;6.70;6.00;;;;;;;;;;4318366;33;20530;-70
2022/01/16 00:31:57;;;;;;;7.55;6.03;;;;;;;;;;4318301;33;20558;-69
2022/01/16 00:34:23;;;;;;;6.05;5.43;;;;;;;;;;4304840;33;20103;-71
2022/01/16 00:36:49;;;;;;;6.05;5.45;;;;;;;;;;4304918;33;20408;-71
2022/01/16 00:39:15;;;;;;;6.60;5.90;;;;;;;;;;4305006;33;20106;-71
2022/01/16 00:41:42;;;;;;;6.05;5.45;;;;;;;;;;4304478;33;20502;-71
2022/01/16 00:44:08;;;;;;;7.00;5.45;;;;;;;;;;4292622;33;20597;-71
2022/01/16 00:46:34;;;;;;;6.05;5.43;;;;;;;;;;4316720;33;20199;-71
2022/01/16 00:49:00;;;;;;;6.53;5.90;;;;;;;;;;4304924;33;20091;-71
2022/01/16 00:51:26;;;;;;;6.60;5.47;;;;;;;;;;4317819;33;20099;-71
2022/01/16 00:53:52;;;;;;;6.85;5.62;;;;;;;;;;4304774;33;20122;-71
2022/01/16 00:56:18;;;;;;;6.72;5.55;;;;;;;;;;4317946;33;20482;-71
2022/01/16 00:58:45;;;;;;;6.95;5.12;;;;;;;;;;4318025;33;20087;-71
2022/01/16 01:01:11;;;;;;;6.15;5.37;;;;;;;;;;4318006;33;20192;-71
2022/01/16 01:03:37;;;;;;;7.45;5.93;;;;;;;;;;4304594;33;20162;-71
2022/01/16 01:06:04;;;;;;;7.28;6.20;;;;;;;;;;4304563;33;20107;-71
2022/01/16 01:08:31;;;;;;;7.62;5.90;;;;;;;;;;4304345;33;20540;-70
2022/01/16 01:11:00;;;;;;;7.60;6.15;;;;;;;;;;4304364;33;20190;-71
2022/01/16 01:15:58;;;;;;;7.45;6.28;;;;;;;;;;4304394;33;20118;-71
2022/01/16 01:18:25;;;;;;;7.57;5.75;;;;;;;;;;4317908;33;20118;-71
2022/01/16 01:20:52;;;;;;;6.75;5.18;;;;;;;;;;4304080;33;20141;-71
2022/01/16 01:23:18;;;;;;;5.93;5.37;;;;;;;;;;4304218;33;20451;-71
2022/01/16 01:25:45;;;;;;;6.28;5.55;;;;;;;;;;4292433;33;20100;-71
2022/01/16 01:28:12;;;;;;;6.50;5.65;;;;;;;;;;4306438;33;20123;-71
2022/01/16 01:30:43;;;;;;;6.70;5.57;;;;;;;;;;4306629;33;20201;-71
2022/01/16 01:33:12;;;;;;;6.18;5.25;;;;;;;;;;4306616;33;20103;-71
2022/01/16 01:35:39;;;;;;;7.07;5.97;;;;;;;;;;4306854;33;20212;-70
2022/01/16 01:38:07;;;;;;;8.07;5.90;;;;;;;;;;4306461;33;20111;-71
2022/01/16 01:40:33;;;;;;;7.20;6.00;;;;;;;;;;4319801;33;20123;-70
2022/01/16 01:51:01;;;;;;;9.27;6.70;;;;;;;;;;4305861;33;20190;-70
2022/01/16 01:51:27;;;;;;;9.23;6.03;;;;;;;;;;4306640;33;20107;-71
2022/01/16 01:53:55;;;;;;;6.32;5.30;;;;;;;;;;4318512;33;20200;-71
2022/01/16 01:56:23;;;;;;;8.80;5.60;;;;;;;;;;4318192;33;20117;-71
2022/01/16 01:58:50;;;;;;;7.12;5.82;;;;;;;;;;4318416;33;20113;-71
2022/01/16 02:01:17;;;;;;;7.55;5.85;;;;;;;;;;4317001;33;20196;-71
2022/01/16 02:03:43;;;;;;;6.53;5.80;;;;;;;;;;4318927;33;20530;-71
2022/01/16 02:06:13;;;;;;;5.90;5.00;;;;;;;;;;4305195;33;20088;-71
2022/01/16 02:08:41;;;;;;;6.97;5.32;;;;;;;;;;4305134;33;20106;-71
2022/01/16 02:11:07;;;;;;;6.35;5.40;;;;;;;;;;4305835;33;20510;-71
2022/01/16 02:13:45;;;;;;;6.30;5.12;;;;;;;;;;4319627;33;20107;-71
2022/01/16 02:35:06;;;;;;;6.62;5.53;;;;;;;;;;4319552;33;20521;-72
2022/01/16 02:37:32;;;;;;;7.00;5.72;;;;;;;;;;4305441;33;20138;-72
2022/01/16 02:40:05;;;;;;;5.35;4.70;;;;;;;;;;4306159;33;20502;-72
2022/01/16 02:42:36;;;;;;;7.68;5.35;;;;;;;;;;4319280;33;20643;-71
2022/01/16 02:45:04;;;;;;;6.78;5.40;;;;;;;;;;4305506;33;20111;-71
2022/01/16 02:47:31;;;;;;;5.90;5.12;;;;;;;;;;4306122;33;20564;-72
2022/01/16 02:50:00;;;;;;;6.95;5.60;;;;;;;;;;4305702;33;20229;-72
2022/01/16 02:52:26;;;;;;;6.65;4.65;;;;;;;;;;4305957;33;20099;-72
2022/01/16 02:54:54;;;;;;;5.03;4.15;;;;;;;;;;4319294;33;20535;-72
2022/01/16 02:57:21;;;;;;;5.00;4.30;;;;;;;;;;4306265;33;20117;-71
2022/01/16 02:59:55;;;;;;;4.37;3.80;;;;;;;;;;4293788;33;20111;-71
2022/01/16 03:02:22;;;;;;;4.22;3.20;;;;;;;;;;4319050;33;20439;-71
2022/01/16 03:04:48;;;;;;;4.47;3.83;;;;;;;;;;4305781;33;20201;-72
2022/01/16 03:07:15;;;;;;;3.83;3.33;;;;;;;;;;4319119;33;20095;-72
2022/01/16 03:10:15;;;;;;;3.95;3.08;;;;;;;;;;4293340;33;20114;-71
2022/01/16 03:12:27;;;;;;;4.32;3.25;;;;;;;;;;4318709;33;20113;-71
2022/01/16 03:14:54;;;;;;;4.20;3.30;;;;;;;;;;4319046;33;20130;-72
2022/01/16 03:17:37;;;;;;;4.93;3.30;;;;;;;;;;4281420;33;20103;-72
2022/01/16 03:22:49;;;;;;;3.53;2.87;;;;;;;;;;4318914;33;20192;-72
2022/01/16 03:25:16;;;;;;;3.58;2.95;;;;;;;;;;4319296;33;20156;-72
2022/01/16 03:27:42;;;;;;;2.87;2.60;;;;;;;;;;4319525;33;20212;-71
2022/01/16 03:30:12;;;;;;;3.28;2.97;;;;;;;;;;4306047;33;20098;-71
2022/01/16 03:32:38;;;;;;;2.75;2.50;;;;;;;;;;4322570;33;20197;-71
2022/01/16 03:35:04;;;;;;;3.78;2.85;;;;;;;;;;4308983;33;20111;-71
2022/01/16 03:37:30;;;;;;;3.33;2.62;;;;;;;;;;4313802;33;20603;-71
2022/01/16 03:39:56;;;;;;;5.28;2.97;;;;;;;;;;4319014;33;20110;-72
2022/01/16 03:42:27;;;;;;;4.22;3.22;;;;;;;;;;4318658;33;20122;-72
2022/01/16 03:44:53;;;;;;;4.72;3.35;;;;;;;;;;4318721;33;20122;-71
2022/01/16 03:47:19;;;;;;;4.93;3.10;;;;;;;;;;4318642;33;20542;-72
2022/01/16 03:49:45;;;;;;;4.15;3.15;;;;;;;;;;4318988;33;20524;-72
2022/01/16 03:52:11;;;;;;;6.68;3.37;;;;;;;;;;4333524;33;20204;-72
2022/01/16 03:54:37;;;;;;;5.37;3.42;;;;;;;;;;4307581;33;20131;-72
2022/01/16 03:57:03;;;;;;;5.62;3.17;;;;;;;;;;4333396;33;20292;-71
2022/01/16 03:59:29;;;;;;;5.93;3.35;;;;;;;;;;4333450;33;20121;-71
2022/01/16 04:01:55;;;;;;;4.45;3.60;;;;;;;;;;4319641;33;20114;-71
2022/01/16 04:04:21;;;;;;;5.62;3.50;;;;;;;;;;4321327;33;20188;-72
2022/01/16 04:06:47;;;;;;;4.95;3.58;;;;;;;;;;4305032;33;20181;-72
2022/01/16 04:09:13;;;;;;;5.30;3.45;;;;;;;;;;4293128;33;20142;-72
2022/01/16 04:11:46;;;;;;;4.22;2.90;;;;;;;;;;4318424;33;20117;-72
2022/01/16 04:14:21;;;;;;;3.95;3.20;;;;;;;;;;4318700;33;20115;-72
2022/01/16 04:16:47;;;;;;;3.87;2.95;;;;;;;;;;4318389;33;20118;-71
2022/01/16 04:19:13;;;;;;;3.58;2.47;;;;;;;;;;4304759;33;20119;-71
2022/01/16 04:21:39;;;;;;;3.30;2.40;;;;;;;;;;4292979;33;20658;-72
2022/01/16 04:24:05;;;;;;;3.30;2.50;;;;;;;;;;4304943;33;20201;-72
2022/01/16 04:26:31;;;;;;;3.53;2.40;;;;;;;;;;4304664;33;20202;-72
2022/01/16 04:28:57;;;;;;;6.60;3.20;;;;;;;;;;4293004;33;20150;-72
2022/01/16 04:31:23;;;;;;;5.28;3.67;;;;;;;;;;4318322;33;20439;-71
2022/01/16 04:33:50;;;;;;;10.65;5.47;;;;;;;;;;4304659;33;20581;-72
2022/01/16 04:36:16;;;;;;;11.20;6.25;;;;;;;;;;4304725;33;20203;-71
2022/01/16 04:38:48;;;;;;;12.82;7.00;;;;;;;;;;4305026;33;20523;-72
2022/01/16 04:44:01;;;;;;;20.50;8.07;;;;;;;;;;4306794;33;20131;-72
2022/01/16 04:46:29;;;;;;;15.45;7.18;;;;;;;;;;4304714;33;20531;-72
2022/01/16 04:48:56;;;;;;;10.60;5.65;;;;;;;;;;4304743;33;20181;-72
2022/01/16 04:51:23;;;;;;;10.85;5.57;;;;;;;;;;4304793;33;20106;-72
2022/01/16 04:53:49;;;;;;;9.45;4.87;;;;;;;;;;4292323;33;20094;-71
2022/01/16 04:56:15;;;;;;;7.03;4.43;;;;;;;;;;4318167;33;20119;-71
2022/01/16 04:58:42;;;;;;;6.80;3.75;;;;;;;;;;4304629;33;20556;-73
2022/01/16 05:01:08;;;;;;;5.32;3.28;;;;;;;;;;4291922;33;20522;-71
2022/01/16 05:03:35;;;;;;;4.87;2.83;;;;;;;;;;4304315;33;20126;-72
2022/01/16 05:06:02;;;;;;;4.47;2.90;;;;;;;;;;4304426;33;20196;-71
2022/01/16 05:08:28;;;;;;;4.05;3.00;;;;;;;;;;4318040;33;20122;-71
2022/01/16 05:10:56;;;;;;;3.22;2.22;;;;;;;;;;4304375;33;20114;-71
2022/01/16 05:18:40;;;;;;;5.25;2.90;;;;;;;;;;4306569;33;20130;-72
2022/01/16 05:21:06;;;;;;;5.20;2.95;;;;;;;;;;4292195;33;20209;-72
2022/01/16 05:23:33;;;;;;;5.53;3.22;;;;;;;;;;4304101;33;20099;-72
2022/01/16 05:26:00;;;;;;;5.62;3.00;;;;;;;;;;4317712;33;20111;-71
2022/01/16 05:28:27;;;;;;;6.65;3.20;;;;;;;;;;4304203;33;20119;-72
2022/01/16 05:30:53;;;;;;;8.32;4.00;;;;;;;;;;4317476;33;20110;-72
2022/01/16 05:33:19;;;;;;;5.97;4.07;;;;;;;;;;4304391;33;20099;-72
2022/01/16 05:35:45;;;;;;;8.15;4.78;;;;;;;;;;4292389;33;20197;-73
2022/01/16 05:38:11;;;;;;;7.78;4.60;;;;;;;;;;4317649;33;20107;-73
2022/01/16 05:40:38;;;;;;;5.65;3.67;;;;;;;;;;4304087;33;20119;-73
2022/01/16 05:43:04;;;;;;;6.70;3.55;;;;;;;;;;4317602;33;20130;-73
2022/01/16 05:45:31;;;;;;;5.00;3.40;;;;;;;;;;4303993;33;20209;-73
2022/01/16 05:47:57;;;;;;;4.95;3.40;;;;;;;;;;4292198;33;20115;-73
2022/01/16 05:50:23;;;;;;;5.80;3.60;;;;;;;;;;4317430;33;20107;-73
2022/01/16 05:52:50;;;;;;;5.72;4.03;;;;;;;;;;4303947;33;20131;-74
2022/01/16 05:55:16;;;;;;;6.15;3.78;;;;;;;;;;4317570;33;20194;-73
2022/01/16 05:57:42;;;;;;;7.45;4.55;;;;;;;;;;4304187;33;20210;-73
2022/01/16 06:00:10;;;;;;;7.70;4.37;;;;;;;;;;4304072;33;20087;-73
2022/01/16 06:02:36;;;;;;;10.23;5.07;;;;;;;;;;4304001;33;20105;-70
2022/01/16 06:05:03;;;;;;;6.62;4.10;;;;;;;;;;4304108;33;20208;-69
2022/01/16 06:07:29;;;;;;;5.32;3.42;;;;;;;;;;4303840;33;20084;-70
2022/01/16 06:09:56;;;;;;;4.90;3.30;;;;;;;;;;4317289;33;20427;-69
2022/01/16 06:12:22;;;;;;;7.28;3.33;;;;;;;;;;4303987;33;20125;-72
2022/01/16 06:14:48;;;;;;;5.15;3.12;;;;;;;;;;4305913;33;20245;-72
2022/01/16 06:17:14;;;;;;;5.82;3.62;;;;;;;;;;4306089;33;20118;-75
2022/01/16 06:19:40;;;;;;;6.95;4.05;;;;;;;;;;4306041;33;20107;-72
2022/01/16 06:22:07;;;;;;;9.25;5.28;;;;;;;;;;4319525;33;20498;-69
2022/01/16 06:24:33;;;;;;;12.80;6.32;;;;;;;;;;4305932;33;20099;-69
2022/01/16 06:26:59;;;;;;;12.43;5.47;;;;;;;;;;4319461;33;20181;-70
2022/01/16 06:29:25;;;;;;;11.90;5.35;;;;;;;;;;4306339;33;20138;-70
2022/01/16 06:31:51;;;;;;;8.27;4.90;;;;;;;;;;4319248;33;20111;-69
2022/01/16 06:34:18;;;;;;;5.50;3.60;;;;;;;;;;4319239;33;20118;-72
2022/01/16 06:36:44;;;;;;;5.40;3.70;;;;;;;;;;4319541;33;20243;-72
2022/01/16 06:39:12;;;;;;;5.30;3.20;;;;;;;;;;4305688;33;20122;-72
2022/01/16 06:41:38;;;;;;;3.90;3.17;;;;;;;;;;4319362;33;20111;-71
2022/01/16 06:44:05;;;;;;;3.58;2.72;;;;;;;;;;4306053;33;20122;-72
2022/01/16 06:46:32;;;;;;;3.47;2.40;;;;;;;;;;4306248;33;20494;-72
2022/01/16 06:48:58;;;;;;;2.85;2.22;;;;;;;;;;4319218;33;20542;-71
2022/01/16 06:51:25;;;;;;;2.62;2.30;;;;;;;;;;4305570;33;20101;-72
2022/01/16 06:53:57;;;;;;;2.90;2.47;;;;;;;;;;4305793;33;20203;-71
2022/01/16 06:56:24;;;;;;;2.85;2.10;;;;;;;;;;4306109;33;20119;-71
2022/01/16 06:58:51;;;;;;;2.80;2.45;;;;;;;;;;4305613;33;20551;-72
2022/01/16 07:01:17;;;;;;;3.50;2.67;;;;;;;;;;4305867;33;20147;-72
2022/01/16 07:03:43;;;;;;;3.80;2.95;;;;;;;;;;4305813;33;20098;-71
2022/01/16 07:06:09;;;;;;;3.62;2.85;;;;;;;;;;4319003;33;20511;-72
2022/01/16 07:08:35;;;;;;;3.83;2.80;;;;;;;;;;4305778;33;20091;-72
2022/01/16 07:11:01;;;;;;;4.40;3.37;;;;;;;;;;4319024;33;20200;-72
2022/01/16 07:13:29;;;;;;;10.48;6.32;;;;;;;;;;4319252;33;20593;-73
2022/01/16 07:15:55;;;;;;;6.97;3.95;;;;;;;;;;4305666;33;20450;-74
2022/01/16 07:18:22;;;;;;;6.43;4.47;;;;;;;;;;4293585;33;20084;-74
2022/01/16 07:20:48;;;;;;;4.30;3.50;;;;;;;;;;4319312;33;20189;-74
2022/01/16 07:23:15;;;;;;;4.22;3.58;;;;;;;;;;4305482;33;20391;-72
2022/01/16 07:25:42;;;;;;;4.93;4.20;;;;;;;;;;4305565;33;20107;-74
2022/01/16 07:28:08;;;;;;;4.28;3.55;;;;;;;;;;4318993;33;20095;-73
2022/01/16 07:30:36;;;;;;;4.60;3.33;;;;;;;;;;4305675;33;20118;-73
2022/01/16 07:33:06;;;;;;;4.00;3.03;;;;;;;;;;4319033;33;20145;-74
2022/01/16 07:35:32;;;;;;;3.53;2.83;;;;;;;;;;4305964;33;20154;-73
2022/01/16 07:37:59;;;;;;;3.58;2.42;;;;;;;;;;4319066;33;20106;-73
2022/01/16 07:40:25;;;;;;;2.97;2.60;;;;;;;;;;4305610;33;20194;-73
2022/01/16 07:42:51;;;;;;;3.50;2.80;;;;;;;;;;4305201;33;20098;-73
2022/01/16 07:45:18;;;;;;;3.17;2.62;;;;;;;;;;4319071;33;20628;-73
2022/01/16 07:47:44;;;;;;;3.75;2.85;;;;;;;;;;4305263;33;20095;-73
2022/01/16 07:50:11;;;;;;;6.65;3.95;;;;;;;;;;4305409;33;20228;-73
2022/01/16 07:52:37;;;;;;;4.93;3.65;;;;;;;;;;4305186;33;20529;-73
2022/01/16 07:55:04;;;;;;;5.50;3.30;;;;;;;;;;4305309;33;20090;-73
2022/01/16 07:57:31;;;;;;;4.70;3.72;;;;;;;;;;4318706;33;20145;-74
2022/01/16 07:59:57;;;;;;;4.40;3.53;;;;;;;;;;4305529;33;20444;-73
2022/01/16 08:02:23;;;;;;;5.03;3.50;;;;;;;;;;4305165;33;20087;-73
2022/01/16 08:04:49;;;;;;;4.40;3.87;;;;;;;;;;4319300;33;20122;-73
2022/01/16 08:07:15;;;;;;;4.22;3.10;;;;;;;;;;4305162;33;20174;-74
2022/01/16 08:09:43;;;;;;;3.78;3.00;;;;;;;;;;4293653;33;20088;-74
2022/01/16 08:12:11;;;;;;;4.25;3.00;;;;;;;;;;4318452;33;20099;-72
2022/01/16 08:14:37;;;;;;;3.10;2.67;;;;;;;;;;4305238;33;20236;-72
2022/01/16 08:17:03;;;;;;;3.62;2.83;;;;;;;;;;4318798;33;20114;-73
2022/01/16 08:19:29;;;;;;;3.78;2.70;;;;;;;;;;4292811;33;20204;-73
2022/01/16 08:21:56;;;;;;;4.15;2.40;;;;;;;;;;4318630;33;20095;-73
2022/01/16 08:24:22;;;;;;;2.78;2.50;;;;;;;;;;4305085;33;20204;-73
2022/01/16 08:26:49;;;;;;;4.87;2.17;;;;;;;;;;4304987;33;20229;-73
2022/01/16 08:29:15;;;;;;;2.47;2.20;;;;;;;;;;4318605;33;20110;-72
2022/01/16 08:31:41;;;;;;;3.10;2.50;;;;;;;;;;4305103;33;20111;-74
2022/01/16 08:34:07;;;;;;;2.58;2.37;;;;;;;;;;4318819;33;20177;-73
2022/01/16 08:36:33;;;;;;;2.55;2.25;;;;;;;;;;4317792;33;20098;-73
2022/01/16 08:39:00;;;;;;;6.93;5.03;;;;;;;;;;4318543;33;20220;-73
2022/01/16 08:41:26;;;;;;;2.97;2.67;;;;;;;;;;4318230;33;20114;-74
2022/01/16 08:43:52;;;;;;;3.37;2.87;;;;;;;;;;4318288;33;20121;-73
2022/01/16 08:46:20;;;;;;;3.83;3.10;;;;;;;;;;4318702;33;20534;-74
2022/01/16 08:48:47;;;;;;;4.97;4.12;;;;;;;;;;4292510;33;20111;-72
2022/01/16 08:51:13;;;;;;;6.50;4.85;;;;;;;;;;4305560;33;20094;-72
2022/01/16 08:53:40;;;;;;;4.22;2.97;;;;;;;;;;4318205;33;20558;-74
2022/01/16 08:56:06;;;;;;;6.30;3.90;;;;;;;;;;4304880;33;20106;-73
2022/01/16 08:58:33;;;;;;;3.35;2.85;;;;;;;;;;4318461;33;20110;-72
2022/01/16 09:00:59;;;;;;;4.55;2.75;;;;;;;;;;4282546;33;20131;-73
2022/01/16 09:03:32;;;;;;;3.92;3.30;;;;;;;;;;4305767;33;20110;-72
2022/01/16 09:05:58;;;;;;;3.72;3.28;;;;;;;;;;4305336;33;20122;-71
2022/01/16 09:08:24;;;;;;;3.28;2.92;;;;;;;;;;4321199;33;20110;-71
2022/01/16 09:10:50;;;;;;;3.33;2.85;;;;;;;;;;4335518;27;20222;-72
2022/01/16 09:13:19;;;;;;;3.00;2.55;;;;;;;;;;4347822;33;20110;-72
2022/01/16 09:15:49;;;;;;;2.80;2.30;;;;;;;;;;4333848;33;20465;-72
2022/01/16 09:18:16;;;;;;;2.70;2.40;;;;;;;;;;4332866;33;20118;-71
2022/01/16 09:20:43;;;;;;;2.70;2.40;;;;;;;;;;4332394;33;20126;-71
2022/01/16 09:23:10;;;;;;;3.65;2.35;;;;;;;;;;4320374;33;20099;-70
2022/01/16 09:25:36;;;;;;;3.30;2.90;;;;;;;;;;4345996;32;20106;-68
2022/01/16 09:28:14;;;;;;;3.42;2.87;;;;;;;;;;4332889;33;20106;-68
2022/01/16 09:30:42;;;;;;;6.10;3.35;;;;;;;;;;4319214;32;20122;-67
2022/01/16 09:33:08;;;;;;;3.12;2.55;;;;;;;;;;4347031;33;20193;-68
2022/01/16 09:35:34;;;;;;;4.43;3.25;;;;;;;;;;4333359;33;20511;-68
2022/01/16 09:38:02;;;;;;;3.10;2.53;;;;;;;;;;4347087;33;20101;-68
2022/01/16 09:40:28;;;;;;;3.10;2.80;;;;;;;;;;4347036;33;20107;-68
2022/01/16 09:42:55;;;;;;;4.05;3.08;;;;;;;;;;4333345;33;20106;-68
2022/01/16 09:45:21;;;;;;;3.28;2.92;;;;;;;;;;4320748;33;20106;-68
2022/01/16 09:47:48;;;;;;;5.15;3.22;;;;;;;;;;4347903;33;20176;-68
2022/01/16 09:50:20;;;;;;;3.78;2.92;;;;;;;;;;4335732;33;20411;-68
2022/01/16 09:52:47;;;;;;;4.43;2.65;;;;;;;;;;4349061;33;20091;-66
2022/01/16 09:55:13;;;;;;;3.95;3.10;;;;;;;;;;4335560;33;20121;-65
2022/01/16 09:57:40;;;;;;;3.40;2.85;;;;;;;;;;4349074;33;20181;-65
2022/01/16 10:00:09;;;;;;;3.83;2.85;;;;;;;;;;4349184;33;20091;-67
2022/01/16 10:02:35;;;;;;;3.00;2.40;;;;;;;;;;4350936;33;20508;-65
2022/01/16 10:05:01;;;;;;;2.90;2.35;;;;;;;;;;4350590;33;20125;-67
2022/01/16 10:07:27;;;;;;;2.55;2.28;;;;;;;;;;4350314;33;20109;-67
2022/01/16 10:10:09;;;;;;;4.90;4.40;;;;;;;;;;4349324;33;20090;-66
2022/01/16 10:12:35;;;;;;;9.00;8.10;;;;;;;;;;4348896;33;20114;-66
2022/01/16 10:15:22;;;;;;;4.22;3.83;;;;;;;;;;4349000;33;20169;-66
2022/01/16 10:17:50;;;;;;;8.90;7.68;;;;;;;;;;4349001;33;20118;-67
2022/01/16 10:23:28;;;;;;;2.53;2.17;;;;;;;;;;4324834;33;20113;-66
2022/01/16 10:26:03;;;;;;;3.80;2.30;;;;;;;;;;4314455;33;20097;-65
2022/01/16 10:28:30;;;;;;;2.42;2.03;;;;;;;;;;4348902;33;20113;-65
2022/01/16 10:30:57;;;;;;;2.65;2.15;;;;;;;;;;4348902;33;20110;-65
2022/01/16 10:33:25;;;;;;;2.50;2.20;;;;;;;;;;4348892;33;20110;-67
2022/01/16 10:35:53;;;;;;;3.00;2.70;;;;;;;;;;4349060;33;20109;-66
2022/01/16 10:38:21;;;;;;;4.05;2.92;;;;;;;;;;4348840;33;20567;-66
2022/01/16 10:40:51;;;;;;;4.37;3.25;;;;;;;;;;4335216;33;20111;-66
2022/01/16 10:43:35;;;;;;;3.92;3.22;;;;;;;;;;4349127;33;20107;-67
2022/01/16 10:46:16;;;;;;;4.47;3.60;;;;;;;;;;4302020;33;20098;-67
2022/01/16 10:48:42;;;;;;;5.40;3.72;;;;;;;;;;4348896;33;20194;-62
2022/01/16 10:51:22;;;;;;;4.60;3.85;;;;;;;;;;4333938;33;20118;-66
2022/01/16 10:53:49;;;;;;;4.57;3.70;;;;;;;;;;4340708;33;20115;-66
2022/01/16 10:56:15;;;;;;;5.15;4.35;;;;;;;;;;4344164;33;20125;-65
2022/01/16 10:58:46;;;;;;;4.75;3.78;;;;;;;;;;4345939;32;20207;-63
2022/01/16 11:01:16;;;;;;;3.80;3.42;;;;;;;;;;4345948;33;20129;-64
2022/01/16 11:03:45;;;;;;;4.20;3.58;;;;;;;;;;4342272;33;20491;-64
2022/01/16 11:06:15;;;;;;;4.37;3.30;;;;;;;;;;4344256;33;20097;-64
2022/01/16 11:09:01;;;;;;;3.40;3.03;;;;;;;;;;4347088;33;20510;-65
2022/01/16 11:11:28;;;;;;;3.50;2.90;;;;;;;;;;4344715;33;20086;-66
2022/01/16 11:13:56;;;;;;;2.87;2.58;;;;;;;;;;4345620;32;20091;-66
2022/01/16 11:16:23;;;;;;;3.72;2.62;;;;;;;;;;4339366;33;20112;-67
2022/01/16 11:18:51;;;;;;;3.33;2.78;;;;;;;;;;4348249;33;20251;-67
2022/01/16 11:21:31;;;;;;;2.65;2.42;;;;;;;;;;4348428;33;20141;-67
2022/01/16 11:24:21;;;;;;;3.08;2.65;;;;;;;;;;4335937;33;20118;-67
2022/01/16 11:26:46;;;;;;;2.55;2.35;;;;;;;;;;4337453;33;20116;-68
2022/01/16 11:29:12;;;;;;;3.05;2.40;;;;;;;;;;4348110;32;20125;-66
2022/01/16 11:31:38;;;;;;;2.62;2.30;;;;;;;;;;4348194;33;20114;-67
2022/01/16 11:34:04;;;;;;;2.90;2.53;;;;;;;;;;4348115;33;20118;-67
2022/01/16 11:36:30;;;;;;;2.85;2.30;;;;;;;;;;4348370;33;20474;-66
2022/01/16 11:39:02;;;;;;;2.65;2.28;;;;;;;;;;4323111;33;20097;-67
2022/01/16 11:41:33;;;;;;;3.70;2.92;;;;;;;;;;4348379;33;20142;-67
2022/01/16 11:44:01;;;;;;;4.50;3.30;;;;;;;;;;4348349;33;20087;-66
2022/01/16 11:46:28;;;;;;;3.78;3.30;;;;;;;;;;4334667;33;20109;-67
2022/01/16 11:49:02;;;;;;;5.55;3.50;;;;;;;;;;4347480;33;20110;-67
2022/01/16 11:51:35;;;;;;;4.87;4.22;;;;;;;;;;4334455;33;20098;-67
2022/01/16 11:54:05;;;;;;;5.35;3.90;;;;;;;;;;4348235;32;20098;-68
2022/01/16 11:56:42;;;;;;;2.87;2.55;;;;;;;;;;4348086;33;20189;-65
2022/01/16 11:59:15;;;;;;;4.32;3.50;;;;;;;;;;4347925;32;20128;-67
2022/01/16 12:01:42;;;;;;;4.50;3.60;;;;;;;;;;4334394;33;20198;-67
2022/01/16 12:04:30;;;;;;;4.22;3.20;;;;;;;;;;4348118;33;20114;-67
2022/01/16 12:07:12;;;;;;;4.62;3.55;;;;;;;;;;4348219;33;20177;-67
2022/01/16 12:12:22;;;;;;;3.40;2.80;;;;;;;;;;4347220;33;20121;-67
2022/01/16 12:14:48;;;;;;;5.93;3.33;;;;;;;;;;4347921;33;20525;-68
2022/01/16 12:17:49;;;;;;;4.37;3.50;;;;;;;;;;4334356;33;20112;-67
2022/01/16 12:20:17;;;;;;;4.22;3.45;;;;;;;;;;4335372;33;20177;-66
2022/01/16 12:23:03;;;;;;;4.25;3.42;;;;;;;;;;4347979;33;20621;-65
2022/01/16 12:25:42;;;;;;;4.23;3.43;;;;;;;;;;4348051;32;20140;-65
2022/01/16 12:28:08;;;;;;;3.15;2.83;;;;;;;;;;4334897;33;20549;-65
2022/01/16 12:31:02;;;;;;;3.30;2.67;;;;;;;;;;4347711;32;20118;-66
2022/01/16 12:33:39;;;;;;;6.20;4.57;;;;;;;;;;4334842;33;20488;-67
2022/01/16 12:36:40;;;;;;;3.78;2.80;;;;;;;;;;4344828;33;20117;-69
2022/01/16 12:39:08;;;;;;;5.07;3.20;;;;;;;;;;4313866;33;20118;-68
2022/01/16 12:41:45;;;;;;;5.60;3.60;;;;;;;;;;4334611;33;20125;-70
2022/01/16 12:44:35;;;;;;;4.85;3.45;;;;;;;;;;4336380;27;20124;-68
2022/01/16 12:47:04;;;;;;;6.18;3.65;;;;;;;;;;4344574;32;20129;-69
2022/01/16 12:49:30;;;;;;;6.32;3.55;;;;;;;;;;4342626;32;20122;-69
2022/01/16 12:51:57;;;;;;;5.45;3.42;;;;;;;;;;4345115;32;20142;-68
2022/01/16 12:54:30;;;;;;;6.07;3.85;;;;;;;;;;4332564;33;20099;-70
2022/01/16 12:57:00;;;;;;;3.83;3.08;;;;;;;;;;4337990;33;20134;-71
2022/01/16 12:59:30;;;;;;;3.83;2.70;;;;;;;;;;4328729;33;20465;-71
2022/01/16 13:02:03;;;;;;;4.25;3.00;;;;;;;;;;4339594;33;20126;-70
2022/01/16 13:04:46;;;;;;;4.50;3.30;;;;;;;;;;4327087;33;20116;-70
2022/01/16 13:07:16;;;;;;;3.35;2.80;;;;;;;;;;4327081;33;20555;-70
2022/01/16 13:09:46;;;;;;;4.60;3.53;;;;;;;;;;4330721;33;20141;-70
2022/01/16 13:12:12;;;;;;;4.05;2.97;;;;;;;;;;4338245;33;20194;-71
2022/01/16 13:14:41;;;;;;;4.35;3.10;;;;;;;;;;4338292;33;20512;-72
2022/01/16 13:17:11;;;;;;;3.97;3.22;;;;;;;;;;4326530;33;20126;-71
2022/01/16 13:19:56;;;;;;;4.00;3.37;;;;;;;;;;4324428;33;20191;-71
2022/01/16 13:22:25;;;;;;;6.75;4.07;;;;;;;;;;4327506;33;20095;-71
2022/01/16 13:25:03;;;;;;;5.43;3.80;;;;;;;;;;4317550;33;20130;-77
2022/01/16 13:27:42;;;;;;;6.15;4.22;;;;;;;;;;4335646;32;20102;-79
2022/01/16 13:30:13;;;;;;;5.40;3.80;;;;;;;;;;4339909;33;20094;-78
2022/01/16 13:32:41;;;;;;;5.37;4.15;;;;;;;;;;4332006;33;20210;-66
2022/01/16 13:35:28;;;;;;;4.40;3.65;;;;;;;;;;4338971;33;20162;-64
2022/01/16 13:38:11;;;;;;;4.12;3.08;;;;;;;;;;4340114;33;20114;-62
2022/01/16 13:40:39;;;;;;;3.10;2.70;;;;;;;;;;4346939;33;20189;-63
2022/01/16 13:43:11;;;;;;;3.55;2.60;;;;;;;;;;4329129;33;20261;-63
2022/01/16 13:45:48;;;;;;;3.47;2.58;;;;;;;;;;4343980;32;20090;-65
2022/01/16 13:48:20;;;;;;;3.12;2.50;;;;;;;;;;4351381;32;20113;-63
2022/01/16 13:50:49;;;;;;;3.17;2.60;;;;;;;;;;4350250;32;20559;-70
2022/01/16 13:53:42;;;;;;;3.62;2.47;;;;;;;;;;4337322;32;20802;-65
2022/01/16 13:56:28;;;;;;;3.03;2.70;;;;;;;;;;4337781;32;20110;-72
2022/01/16 13:58:56;;;;;;;;;;;;;;;;;;4350936;32;20129;-68
2022/01/16 14:01:27;;;;;;;5.07;3.78;;;;;;;;;;4350388;32;19966;-67
2022/01/16 14:03:54;;;;;;;4.70;3.78;;;;;;;;;;4339010;32;20195;-65
2022/01/16 14:06:21;;;;;;;5.50;3.92;;;;;;;;;;4353977;32;20473;-66
2022/01/16 14:08:52;;;;;;;5.53;3.92;;;;;;;;;;4353057;32;20099;-71
2022/01/16 14:11:23;;;;;;;3.70;3.30;;;;;;;;;;4335221;32;20090;-68
2022/01/16 14:13:56;;;;;;;5.80;4.32;;;;;;;;;;4339017;32;20493;-70
2022/01/16 14:16:46;;;;;;;5.25;4.00;;;;;;;;;;4346364;33;20102;-72
2022/01/16 14:19:18;;;;;;;5.37;4.25;;;;;;;;;;4309544;33;20094;-68
2022/01/16 14:22:10;;;;;;;6.57;5.32;;;;;;;;;;4345962;32;20555;-72
2022/01/16 14:24:49;;;;;;;5.80;5.12;;;;;;;;;;4346723;33;20106;-71
2022/01/16 14:27:23;;;;;;;5.62;4.50;;;;;;;;;;4334330;33;20106;-77
2022/01/16 14:29:51;;;;;;;5.30;4.50;;;;;;;;;;4345940;33;20203;-77
2022/01/16 14:32:18;;;;;;;6.03;5.00;;;;;;;;;;4343106;33;20652;-70
2022/01/16 14:34:44;;;;;;;5.20;4.70;;;;;;;;;;4338789;32;20095;-70
2022/01/16 14:37:13;;;;;;;5.50;4.90;;;;;;;;;;4338901;33;20103;-70
2022/01/16 14:39:40;;;;;;;6.72;5.75;;;;;;;;;;4329430;33;20197;-66
2022/01/16 14:42:08;;;;;;;6.75;5.43;;;;;;;;;;4338948;33;20113;-64
2022/01/16 14:44:36;;;;;;;6.65;5.90;;;;;;;;;;4340189;32;20138;-65
2022/01/16 14:47:03;;;;;;;6.72;5.35;;;;;;;;;;4341041;33;20552;-64
2022/01/16 14:49:30;;;;;;;5.57;4.97;;;;;;;;;;4340246;33;20736;-64
2022/01/16 14:51:56;;;;;;;5.53;4.90;;;;;;;;;;4342325;32;20548;-64
2022/01/16 14:54:22;;;;;;;4.72;4.22;;;;;;;;;;4342002;32;20110;-64
2022/01/16 14:56:49;;;;;;;5.05;4.47;;;;;;;;;;4341334;33;20458;-64
2022/01/16 14:59:15;;;;;;;6.12;4.35;;;;;;;;;;4340057;33;20115;-64
2022/01/16 15:01:42;;;;;;;5.47;4.97;;;;;;;;;;4324613;33;20099;-65
2022/01/16 15:04:09;;;;;;;5.62;4.90;;;;;;;;;;4339736;32;20507;-63
2022/01/16 15:06:35;;;;;;;6.03;5.25;;;;;;;;;;4334246;32;20142;-64
2022/01/16 15:09:02;;;;;;;6.07;5.22;;;;;;;;;;4346519;33;20114;-64
2022/01/16 15:11:29;;;;;;;5.32;4.60;;;;;;;;;;4347022;33;20219;-64
2022/01/16 15:13:58;;;;;;;4.47;3.72;;;;;;;;;;4325619;33;20188;-63
2022/01/16 15:16:29;;;;;;;3.28;2.80;;;;;;;;;;4333295;33;20561;-64
2022/01/16 15:19:01;;;;;;;4.32;3.30;;;;;;;;;;4341747;33;20091;-65
2022/01/16 15:21:40;;;;;;;4.70;2.97;;;;;;;;;;4334481;33;20101;-64
2022/01/16 15:24:07;;;;;;;3.72;3.10;;;;;;;;;;4335852;33;20182;-64
2022/01/16 15:26:33;;;;;;;3.92;3.30;;;;;;;;;;4346605;33;20531;-64
2022/01/16 15:28:59;;;;;;;3.95;3.33;;;;;;;;;;4345791;33;20121;-67
2022/01/16 15:31:27;;;;;;;4.00;3.33;;;;;;;;;;4346086;33;20105;-67
2022/01/16 15:33:53;;;;;;;4.32;3.15;;;;;;;;;;4329212;33;20223;-67
2022/01/16 15:36:19;;;;;;;5.18;3.45;;;;;;;;;;4338360;33;20113;-70
2022/01/16 15:38:45;;;;;;;3.65;3.17;;;;;;;;;;4341375;33;20101;-73
2022/01/16 15:41:11;;;;;;;4.70;3.35;;;;;;;;;;4328354;33;20547;-71
2022/01/16 15:43:38;;;;;;;3.90;3.50;;;;;;;;;;4326759;33;20547;-74
2022/01/16 15:46:04;;;;;;;3.97;2.90;;;;;;;;;;4324808;33;20130;-74
2022/01/16 15:48:31;;;;;;;3.95;3.30;;;;;;;;;;4339374;33;20545;-72
2022/01/16 15:50:57;;;;;;;3.35;2.80;;;;;;;;;;4326645;33;20130;-73
2022/01/16 15:53:23;;;;;;;4.10;3.12;;;;;;;;;;4330865;33;20098;-69
2022/01/16 15:55:50;;;;;;;4.55;2.83;;;;;;;;;;4327871;33;20130;-70